sensor_id;sensor_type;location;lat;lon;timestamp;P1;durP1;ratioP1;P2;durP2;ratioP2
72728;SDS011;60843;52.062;4.508;2023-05-28T00:01:45;25.55;;;9.05;;
72728;SDS011;60843;52.062;4.508;2023-05-28T00:04:12;21.30;;;7.45;;
72728;SDS011;60843;52.062;4.508;2023-05-28T00:06:37;30.83;;;9.82;;
72728;SDS011;60843;52.062;4.508;2023-05-28T00:09:02;33.97;;;11.07;;
72728;SDS011;60843;52.062;4.508;2023-05-28T00:11:28;28.27;;;8.75;;
72728;SDS011;60843;52.062;4.508;2023-05-28T00:13:55;26.40;;;8.75;;
72728;SDS011;60843;52.062;4.508;2023-05-28T00:16:21;33.15;;;8.90;;
72728;SDS011;60843;52.062;4.508;2023-05-28T00:18:46;24.02;;;8.70;;
72728;SDS011;60843;52.062;4.508;2023-05-28T00:21:12;19.63;;;7.50;;
72728;SDS011;60843;52.062;4.508;2023-05-28T00:23:37;20.48;;;8.02;;
72728;SDS011;60843;52.062;4.508;2023-05-28T00:26:03;29.80;;;9.45;;
72728;SDS011;60843;52.062;4.508;2023-05-28T00:28:28;30.60;;;8.98;;
72728;SDS011;60843;52.062;4.508;2023-05-28T00:30:54;22.63;;;8.30;;
72728;SDS011;60843;52.062;4.508;2023-05-28T00:33:19;25.23;;;8.15;;
72728;SDS011;60843;52.062;4.508;2023-05-28T00:35:45;28.17;;;8.07;;
72728;SDS011;60843;52.062;4.508;2023-05-28T00:38:11;33.17;;;8.45;;
72728;SDS011;60843;52.062;4.508;2023-05-28T00:40:36;24.73;;;8.73;;
72728;SDS011;60843;52.062;4.508;2023-05-28T00:43:02;25.48;;;8.65;;
72728;SDS011;60843;52.062;4.508;2023-05-28T00:45:27;30.00;;;9.38;;
72728;SDS011;60843;52.062;4.508;2023-05-28T00:47:53;19.67;;;9.30;;
72728;SDS011;60843;52.062;4.508;2023-05-28T00:50:18;24.02;;;9.05;;
72728;SDS011;60843;52.062;4.508;2023-05-28T00:52:45;26.27;;;8.73;;
72728;SDS011;60843;52.062;4.508;2023-05-28T00:55:13;23.13;;;7.70;;
72728;SDS011;60843;52.062;4.508;2023-05-28T00:57:40;24.85;;;8.90;;
72728;SDS011;60843;52.062;4.508;2023-05-28T01:00:07;33.38;;;8.90;;
72728;SDS011;60843;52.062;4.508;2023-05-28T01:02:33;27.98;;;8.77;;
72728;SDS011;60843;52.062;4.508;2023-05-28T01:04:59;28.52;;;9.45;;
72728;SDS011;60843;52.062;4.508;2023-05-28T01:07:24;27.90;;;9.43;;
72728;SDS011;60843;52.062;4.508;2023-05-28T01:09:50;21.52;;;9.10;;
72728;SDS011;60843;52.062;4.508;2023-05-28T01:12:15;31.05;;;9.15;;
72728;SDS011;60843;52.062;4.508;2023-05-28T01:14:41;26.88;;;9.02;;
72728;SDS011;60843;52.062;4.508;2023-05-28T01:17:06;30.88;;;9.95;;
72728;SDS011;60843;52.062;4.508;2023-05-28T01:19:32;27.42;;;8.75;;
72728;SDS011;60843;52.062;4.508;2023-05-28T01:22:00;27.90;;;9.18;;
72728;SDS011;60843;52.062;4.508;2023-05-28T01:24:28;26.30;;;8.85;;
72728;SDS011;60843;52.062;4.508;2023-05-28T01:26:56;28.70;;;9.77;;
72728;SDS011;60843;52.062;4.508;2023-05-28T01:29:22;29.70;;;9.20;;
72728;SDS011;60843;52.062;4.508;2023-05-28T01:31:47;24.90;;;7.73;;
72728;SDS011;60843;52.062;4.508;2023-05-28T01:34:13;26.02;;;9.13;;
72728;SDS011;60843;52.062;4.508;2023-05-28T01:36:46;25.17;;;8.52;;
72728;SDS011;60843;52.062;4.508;2023-05-28T01:39:14;23.83;;;8.93;;
72728;SDS011;60843;52.062;4.508;2023-05-28T01:41:42;26.77;;;9.07;;
72728;SDS011;60843;52.062;4.508;2023-05-28T01:44:09;29.23;;;8.93;;
72728;SDS011;60843;52.062;4.508;2023-05-28T01:46:37;24.73;;;9.52;;
72728;SDS011;60843;52.062;4.508;2023-05-28T01:49:04;27.48;;;9.85;;
72728;SDS011;60843;52.062;4.508;2023-05-28T01:51:29;27.77;;;8.93;;
72728;SDS011;60843;52.062;4.508;2023-05-28T01:53:54;22.77;;;8.18;;
72728;SDS011;60843;52.062;4.508;2023-05-28T01:56:20;35.35;;;9.18;;
72728;SDS011;60843;52.062;4.508;2023-05-28T01:58:45;26.80;;;9.20;;
72728;SDS011;60843;52.062;4.508;2023-05-28T02:01:14;25.38;;;9.57;;
72728;SDS011;60843;52.062;4.508;2023-05-28T02:03:55;32.42;;;9.20;;
72728;SDS011;60843;52.062;4.508;2023-05-28T02:06:25;20.38;;;8.32;;
72728;SDS011;60843;52.062;4.508;2023-05-28T02:08:52;24.17;;;9.07;;
72728;SDS011;60843;52.062;4.508;2023-05-28T02:11:17;26.10;;;9.13;;
72728;SDS011;60843;52.062;4.508;2023-05-28T02:13:43;28.60;;;8.48;;
72728;SDS011;60843;52.062;4.508;2023-05-28T02:16:09;25.90;;;8.52;;
72728;SDS011;60843;52.062;4.508;2023-05-28T02:18:36;26.55;;;8.90;;
72728;SDS011;60843;52.062;4.508;2023-05-28T02:21:02;27.90;;;9.68;;
72728;SDS011;60843;52.062;4.508;2023-05-28T02:23:28;25.75;;;9.15;;
72728;SDS011;60843;52.062;4.508;2023-05-28T02:25:53;32.17;;;9.00;;
72728;SDS011;60843;52.062;4.508;2023-05-28T02:28:18;21.90;;;8.57;;
72728;SDS011;60843;52.062;4.508;2023-05-28T02:30:44;29.80;;;9.47;;
72728;SDS011;60843;52.062;4.508;2023-05-28T02:33:09;32.75;;;9.38;;
72728;SDS011;60843;52.062;4.508;2023-05-28T02:35:35;23.33;;;8.98;;
72728;SDS011;60843;52.062;4.508;2023-05-28T02:38:00;29.33;;;9.25;;
72728;SDS011;60843;52.062;4.508;2023-05-28T02:40:26;34.45;;;9.15;;
72728;SDS011;60843;52.062;4.508;2023-05-28T02:42:51;27.65;;;8.93;;
72728;SDS011;60843;52.062;4.508;2023-05-28T02:45:19;25.30;;;8.70;;
72728;SDS011;60843;52.062;4.508;2023-05-28T02:47:45;33.42;;;9.27;;
72728;SDS011;60843;52.062;4.508;2023-05-28T02:50:10;30.80;;;9.63;;
72728;SDS011;60843;52.062;4.508;2023-05-28T02:52:35;23.13;;;7.67;;
72728;SDS011;60843;52.062;4.508;2023-05-28T02:55:01;22.70;;;8.30;;
72728;SDS011;60843;52.062;4.508;2023-05-28T02:57:27;25.85;;;9.40;;
72728;SDS011;60843;52.062;4.508;2023-05-28T02:59:52;28.85;;;9.82;;
72728;SDS011;60843;52.062;4.508;2023-05-28T03:02:18;22.93;;;7.83;;
72728;SDS011;60843;52.062;4.508;2023-05-28T03:04:43;38.83;;;10.15;;
72728;SDS011;60843;52.062;4.508;2023-05-28T03:07:09;22.73;;;8.18;;
72728;SDS011;60843;52.062;4.508;2023-05-28T03:09:35;23.67;;;8.68;;
72728;SDS011;60843;52.062;4.508;2023-05-28T03:12:01;22.50;;;7.45;;
72728;SDS011;60843;52.062;4.508;2023-05-28T03:14:27;28.33;;;8.73;;
72728;SDS011;60843;52.062;4.508;2023-05-28T03:16:52;31.53;;;9.53;;
72728;SDS011;60843;52.062;4.508;2023-05-28T03:19:18;29.57;;;8.83;;
72728;SDS011;60843;52.062;4.508;2023-05-28T03:21:43;22.13;;;8.45;;
72728;SDS011;60843;52.062;4.508;2023-05-28T03:24:09;29.10;;;8.73;;
72728;SDS011;60843;52.062;4.508;2023-05-28T03:26:34;27.92;;;8.95;;
72728;SDS011;60843;52.062;4.508;2023-05-28T03:29:01;24.17;;;8.48;;
72728;SDS011;60843;52.062;4.508;2023-05-28T03:31:27;23.98;;;9.80;;
72728;SDS011;60843;52.062;4.508;2023-05-28T03:33:53;28.00;;;8.45;;
72728;SDS011;60843;52.062;4.508;2023-05-28T03:36:18;25.80;;;8.77;;
72728;SDS011;60843;52.062;4.508;2023-05-28T03:38:44;23.97;;;9.87;;
72728;SDS011;60843;52.062;4.508;2023-05-28T03:41:09;26.43;;;8.03;;
72728;SDS011;60843;52.062;4.508;2023-05-28T03:43:34;23.50;;;9.07;;
72728;SDS011;60843;52.062;4.508;2023-05-28T03:46:00;24.30;;;8.88;;
72728;SDS011;60843;52.062;4.508;2023-05-28T03:48:25;29.63;;;9.23;;
72728;SDS011;60843;52.062;4.508;2023-05-28T03:50:50;27.30;;;8.27;;
72728;SDS011;60843;52.062;4.508;2023-05-28T03:53:16;23.80;;;8.40;;
72728;SDS011;60843;52.062;4.508;2023-05-28T03:55:41;25.00;;;8.50;;
72728;SDS011;60843;52.062;4.508;2023-05-28T03:58:07;23.98;;;8.98;;
72728;SDS011;60843;52.062;4.508;2023-05-28T04:00:34;25.83;;;9.07;;
72728;SDS011;60843;52.062;4.508;2023-05-28T04:02:59;22.52;;;8.93;;
72728;SDS011;60843;52.062;4.508;2023-05-28T04:05:25;24.67;;;8.60;;
72728;SDS011;60843;52.062;4.508;2023-05-28T04:07:50;23.53;;;9.10;;
72728;SDS011;60843;52.062;4.508;2023-05-28T04:10:16;21.90;;;7.40;;
72728;SDS011;60843;52.062;4.508;2023-05-28T04:12:41;24.23;;;8.45;;
72728;SDS011;60843;52.062;4.508;2023-05-28T04:15:07;19.90;;;7.73;;
72728;SDS011;60843;52.062;4.508;2023-05-28T04:17:33;22.08;;;8.25;;
72728;SDS011;60843;52.062;4.508;2023-05-28T04:19:58;21.83;;;7.68;;
72728;SDS011;60843;52.062;4.508;2023-05-28T04:22:24;19.27;;;7.50;;
72728;SDS011;60843;52.062;4.508;2023-05-28T04:24:52;20.10;;;7.67;;
72728;SDS011;60843;52.062;4.508;2023-05-28T04:27:20;23.77;;;7.68;;
72728;SDS011;60843;52.062;4.508;2023-05-28T04:29:46;26.70;;;8.55;;
72728;SDS011;60843;52.062;4.508;2023-05-28T04:32:11;23.70;;;8.13;;
72728;SDS011;60843;52.062;4.508;2023-05-28T04:34:38;17.60;;;7.73;;
72728;SDS011;60843;52.062;4.508;2023-05-28T04:37:05;21.15;;;8.10;;
72728;SDS011;60843;52.062;4.508;2023-05-28T04:39:32;22.77;;;10.15;;
72728;SDS011;60843;52.062;4.508;2023-05-28T04:41:58;21.42;;;8.23;;
72728;SDS011;60843;52.062;4.508;2023-05-28T04:44:24;17.60;;;7.00;;
72728;SDS011;60843;52.062;4.508;2023-05-28T04:46:50;23.50;;;7.35;;
72728;SDS011;60843;52.062;4.508;2023-05-28T04:49:16;18.80;;;7.25;;
72728;SDS011;60843;52.062;4.508;2023-05-28T04:51:41;22.20;;;7.97;;
72728;SDS011;60843;52.062;4.508;2023-05-28T04:54:08;22.92;;;7.65;;
72728;SDS011;60843;52.062;4.508;2023-05-28T04:56:34;22.88;;;7.80;;
72728;SDS011;60843;52.062;4.508;2023-05-28T04:59:00;14.85;;;7.43;;
72728;SDS011;60843;52.062;4.508;2023-05-28T05:01:29;20.85;;;7.25;;
72728;SDS011;60843;52.062;4.508;2023-05-28T05:03:57;21.48;;;7.43;;
72728;SDS011;60843;52.062;4.508;2023-05-28T05:06:22;21.92;;;7.07;;
72728;SDS011;60843;52.062;4.508;2023-05-28T05:08:48;22.38;;;7.57;;
72728;SDS011;60843;52.062;4.508;2023-05-28T05:11:13;20.67;;;7.40;;
72728;SDS011;60843;52.062;4.508;2023-05-28T05:13:39;17.25;;;7.40;;
72728;SDS011;60843;52.062;4.508;2023-05-28T05:16:04;14.60;;;6.35;;
72728;SDS011;60843;52.062;4.508;2023-05-28T05:18:30;21.92;;;7.35;;
72728;SDS011;60843;52.062;4.508;2023-05-28T05:20:55;20.92;;;7.82;;
72728;SDS011;60843;52.062;4.508;2023-05-28T05:23:22;15.98;;;6.93;;
72728;SDS011;60843;52.062;4.508;2023-05-28T05:25:47;21.17;;;7.00;;
72728;SDS011;60843;52.062;4.508;2023-05-28T05:28:13;18.88;;;7.22;;
72728;SDS011;60843;52.062;4.508;2023-05-28T05:30:38;16.85;;;6.60;;
72728;SDS011;60843;52.062;4.508;2023-05-28T05:33:04;22.58;;;8.07;;
72728;SDS011;60843;52.062;4.508;2023-05-28T05:35:29;26.10;;;7.57;;
72728;SDS011;60843;52.062;4.508;2023-05-28T05:37:55;21.20;;;7.37;;
72728;SDS011;60843;52.062;4.508;2023-05-28T05:40:20;21.00;;;7.10;;
72728;SDS011;60843;52.062;4.508;2023-05-28T05:42:46;18.38;;;6.88;;
72728;SDS011;60843;52.062;4.508;2023-05-28T05:45:11;21.23;;;6.85;;
72728;SDS011;60843;52.062;4.508;2023-05-28T05:47:37;20.38;;;7.30;;
72728;SDS011;60843;52.062;4.508;2023-05-28T05:52:30;20.15;;;6.18;;
72728;SDS011;60843;52.062;4.508;2023-05-28T05:54:56;15.10;;;5.85;;
72728;SDS011;60843;52.062;4.508;2023-05-28T05:57:22;21.52;;;7.53;;
72728;SDS011;60843;52.062;4.508;2023-05-28T05:59:47;16.67;;;6.43;;
72728;SDS011;60843;52.062;4.508;2023-05-28T06:02:13;19.00;;;6.57;;
72728;SDS011;60843;52.062;4.508;2023-05-28T06:04:39;22.27;;;6.72;;
72728;SDS011;60843;52.062;4.508;2023-05-28T06:07:04;19.65;;;6.60;;
72728;SDS011;60843;52.062;4.508;2023-05-28T06:09:32;15.82;;;6.57;;
72728;SDS011;60843;52.062;4.508;2023-05-28T06:12:00;16.60;;;6.63;;
72728;SDS011;60843;52.062;4.508;2023-05-28T06:14:27;17.58;;;6.60;;
72728;SDS011;60843;52.062;4.508;2023-05-28T06:16:52;15.60;;;5.80;;
72728;SDS011;60843;52.062;4.508;2023-05-28T06:19:18;16.55;;;6.00;;
72728;SDS011;60843;52.062;4.508;2023-05-28T06:21:44;17.75;;;6.57;;
72728;SDS011;60843;52.062;4.508;2023-05-28T06:24:10;12.85;;;5.45;;
72728;SDS011;60843;52.062;4.508;2023-05-28T06:26:35;15.90;;;5.78;;
72728;SDS011;60843;52.062;4.508;2023-05-28T06:29:01;11.98;;;5.35;;
72728;SDS011;60843;52.062;4.508;2023-05-28T06:31:26;13.20;;;5.05;;
72728;SDS011;60843;52.062;4.508;2023-05-28T06:33:52;15.90;;;4.77;;
72728;SDS011;60843;52.062;4.508;2023-05-28T06:36:17;14.47;;;4.80;;
72728;SDS011;60843;52.062;4.508;2023-05-28T06:38:43;14.93;;;5.10;;
72728;SDS011;60843;52.062;4.508;2023-05-28T06:41:08;18.17;;;4.60;;
72728;SDS011;60843;52.062;4.508;2023-05-28T06:43:34;17.30;;;5.28;;
72728;SDS011;60843;52.062;4.508;2023-05-28T06:45:59;15.30;;;4.65;;
72728;SDS011;60843;52.062;4.508;2023-05-28T06:48:25;15.63;;;5.13;;
72728;SDS011;60843;52.062;4.508;2023-05-28T06:50:51;13.45;;;4.28;;
72728;SDS011;60843;52.062;4.508;2023-05-28T06:53:16;9.35;;;3.90;;
72728;SDS011;60843;52.062;4.508;2023-05-28T06:55:42;11.70;;;4.72;;
72728;SDS011;60843;52.062;4.508;2023-05-28T06:58:07;14.38;;;4.93;;
72728;SDS011;60843;52.062;4.508;2023-05-28T07:00:33;10.95;;;4.25;;
72728;SDS011;60843;52.062;4.508;2023-05-28T07:02:58;17.30;;;4.85;;
72728;SDS011;60843;52.062;4.508;2023-05-28T07:05:24;14.30;;;4.60;;
72728;SDS011;60843;52.062;4.508;2023-05-28T07:07:49;13.48;;;4.85;;
72728;SDS011;60843;52.062;4.508;2023-05-28T07:10:15;11.02;;;4.18;;
72728;SDS011;60843;52.062;4.508;2023-05-28T07:12:40;11.75;;;4.65;;
72728;SDS011;60843;52.062;4.508;2023-05-28T07:15:06;14.23;;;4.78;;
72728;SDS011;60843;52.062;4.508;2023-05-28T07:17:32;12.73;;;4.82;;
72728;SDS011;60843;52.062;4.508;2023-05-28T07:19:58;13.57;;;4.78;;
72728;SDS011;60843;52.062;4.508;2023-05-28T07:22:24;12.18;;;4.97;;
72728;SDS011;60843;52.062;4.508;2023-05-28T07:24:50;13.90;;;4.80;;
72728;SDS011;60843;52.062;4.508;2023-05-28T07:27:15;13.80;;;4.45;;
72728;SDS011;60843;52.062;4.508;2023-05-28T07:29:41;13.35;;;4.80;;
72728;SDS011;60843;52.062;4.508;2023-05-28T07:32:06;16.05;;;5.53;;
72728;SDS011;60843;52.062;4.508;2023-05-28T07:34:32;12.25;;;4.30;;
72728;SDS011;60843;52.062;4.508;2023-05-28T07:36:57;12.77;;;4.15;;
72728;SDS011;60843;52.062;4.508;2023-05-28T07:39:23;15.48;;;4.78;;
72728;SDS011;60843;52.062;4.508;2023-05-28T07:41:48;12.65;;;4.20;;
72728;SDS011;60843;52.062;4.508;2023-05-28T07:44:14;14.63;;;4.80;;
72728;SDS011;60843;52.062;4.508;2023-05-28T07:46:43;14.75;;;4.70;;
72728;SDS011;60843;52.062;4.508;2023-05-28T07:49:08;15.45;;;4.38;;
72728;SDS011;60843;52.062;4.508;2023-05-28T07:51:33;11.50;;;4.20;;
72728;SDS011;60843;52.062;4.508;2023-05-28T07:53:59;14.40;;;4.47;;
72728;SDS011;60843;52.062;4.508;2023-05-28T07:56:24;12.93;;;4.55;;
72728;SDS011;60843;52.062;4.508;2023-05-28T07:58:51;14.40;;;4.65;;
72728;SDS011;60843;52.062;4.508;2023-05-28T08:01:16;16.00;;;4.78;;
72728;SDS011;60843;52.062;4.508;2023-05-28T08:03:42;16.20;;;5.03;;
72728;SDS011;60843;52.062;4.508;2023-05-28T08:06:07;14.13;;;4.63;;
72728;SDS011;60843;52.062;4.508;2023-05-28T08:08:34;10.75;;;3.45;;
72728;SDS011;60843;52.062;4.508;2023-05-28T08:10:59;12.85;;;4.07;;
72728;SDS011;60843;52.062;4.508;2023-05-28T08:13:25;11.45;;;4.00;;
72728;SDS011;60843;52.062;4.508;2023-05-28T08:15:51;13.77;;;4.45;;
72728;SDS011;60843;52.062;4.508;2023-05-28T08:18:17;13.50;;;3.85;;
72728;SDS011;60843;52.062;4.508;2023-05-28T08:20:42;14.57;;;4.10;;
72728;SDS011;60843;52.062;4.508;2023-05-28T08:23:08;12.20;;;3.92;;
72728;SDS011;60843;52.062;4.508;2023-05-28T08:25:33;8.32;;;3.60;;
72728;SDS011;60843;52.062;4.508;2023-05-28T08:27:59;15.05;;;3.85;;
72728;SDS011;60843;52.062;4.508;2023-05-28T08:30:25;12.93;;;4.35;;
72728;SDS011;60843;52.062;4.508;2023-05-28T08:32:50;9.53;;;4.33;;
72728;SDS011;60843;52.062;4.508;2023-05-28T08:35:16;11.25;;;3.35;;
72728;SDS011;60843;52.062;4.508;2023-05-28T08:37:41;13.52;;;4.05;;
72728;SDS011;60843;52.062;4.508;2023-05-28T08:40:07;13.25;;;3.83;;
72728;SDS011;60843;52.062;4.508;2023-05-28T08:42:34;10.98;;;3.92;;
72728;SDS011;60843;52.062;4.508;2023-05-28T08:45:00;12.25;;;4.15;;
72728;SDS011;60843;52.062;4.508;2023-05-28T08:47:26;12.77;;;3.42;;
72728;SDS011;60843;52.062;4.508;2023-05-28T08:49:53;11.25;;;4.90;;
72728;SDS011;60843;52.062;4.508;2023-05-28T08:52:21;12.02;;;4.28;;
72728;SDS011;60843;52.062;4.508;2023-05-28T08:54:47;11.23;;;4.30;;
72728;SDS011;60843;52.062;4.508;2023-05-28T08:57:13;13.40;;;3.78;;
72728;SDS011;60843;52.062;4.508;2023-05-28T08:59:39;10.80;;;3.63;;
72728;SDS011;60843;52.062;4.508;2023-05-28T09:02:04;8.50;;;2.75;;
72728;SDS011;60843;52.062;4.508;2023-05-28T09:04:31;8.30;;;3.40;;
72728;SDS011;60843;52.062;4.508;2023-05-28T09:06:56;15.52;;;4.25;;
72728;SDS011;60843;52.062;4.508;2023-05-28T09:09:22;13.07;;;3.60;;
72728;SDS011;60843;52.062;4.508;2023-05-28T09:11:48;11.18;;;3.85;;
72728;SDS011;60843;52.062;4.508;2023-05-28T09:14:15;15.30;;;4.07;;
72728;SDS011;60843;52.062;4.508;2023-05-28T09:16:43;11.88;;;3.40;;
72728;SDS011;60843;52.062;4.508;2023-05-28T09:19:09;11.88;;;3.78;;
72728;SDS011;60843;52.062;4.508;2023-05-28T09:21:35;14.75;;;3.63;;
72728;SDS011;60843;52.062;4.508;2023-05-28T09:24:01;11.18;;;3.50;;
72728;SDS011;60843;52.062;4.508;2023-05-28T09:26:31;8.57;;;3.25;;
72728;SDS011;60843;52.062;4.508;2023-05-28T09:28:57;12.55;;;3.70;;
72728;SDS011;60843;52.062;4.508;2023-05-28T09:31:29;9.95;;;3.40;;
72728;SDS011;60843;52.062;4.508;2023-05-28T09:33:59;17.58;;;3.50;;
72728;SDS011;60843;52.062;4.508;2023-05-28T09:36:28;10.32;;;3.50;;
72728;SDS011;60843;52.062;4.508;2023-05-28T09:38:55;7.63;;;3.00;;
72728;SDS011;60843;52.062;4.508;2023-05-28T09:41:24;14.15;;;3.53;;
72728;SDS011;60843;52.062;4.508;2023-05-28T09:43:59;12.25;;;3.25;;
72728;SDS011;60843;52.062;4.508;2023-05-28T09:48:54;14.35;;;4.10;;
72728;SDS011;60843;52.062;4.508;2023-05-28T09:51:20;16.50;;;3.90;;
72728;SDS011;60843;52.062;4.508;2023-05-28T09:53:48;11.77;;;3.83;;
72728;SDS011;60843;52.062;4.508;2023-05-28T09:56:15;9.75;;;3.58;;
72728;SDS011;60843;52.062;4.508;2023-05-28T09:58:41;9.95;;;3.03;;
72728;SDS011;60843;52.062;4.508;2023-05-28T10:01:08;11.45;;;3.47;;
72728;SDS011;60843;52.062;4.508;2023-05-28T10:03:38;11.57;;;3.50;;
72728;SDS011;60843;52.062;4.508;2023-05-28T10:06:12;9.80;;;3.25;;
72728;SDS011;60843;52.062;4.508;2023-05-28T10:08:41;13.10;;;3.67;;
72728;SDS011;60843;52.062;4.508;2023-05-28T10:11:09;11.48;;;3.60;;
72728;SDS011;60843;52.062;4.508;2023-05-28T10:13:35;7.97;;;2.67;;
72728;SDS011;60843;52.062;4.508;2023-05-28T10:16:00;11.75;;;3.20;;
72728;SDS011;60843;52.062;4.508;2023-05-28T10:18:26;15.88;;;3.33;;
72728;SDS011;60843;52.062;4.508;2023-05-28T10:20:51;13.77;;;3.95;;
72728;SDS011;60843;52.062;4.508;2023-05-28T10:23:17;13.75;;;4.43;;
72728;SDS011;60843;52.062;4.508;2023-05-28T10:25:44;9.57;;;3.10;;
72728;SDS011;60843;52.062;4.508;2023-05-28T10:28:13;12.45;;;3.47;;
72728;SDS011;60843;52.062;4.508;2023-05-28T10:30:39;12.40;;;3.25;;
72728;SDS011;60843;52.062;4.508;2023-05-28T10:33:08;10.73;;;3.70;;
72728;SDS011;60843;52.062;4.508;2023-05-28T10:35:50;12.30;;;3.45;;
72728;SDS011;60843;52.062;4.508;2023-05-28T10:38:18;10.07;;;3.75;;
72728;SDS011;60843;52.062;4.508;2023-05-28T10:40:43;16.20;;;4.25;;
72728;SDS011;60843;52.062;4.508;2023-05-28T10:46:02;10.63;;;3.83;;
72728;SDS011;60843;52.062;4.508;2023-05-28T10:48:31;8.32;;;3.38;;
72728;SDS011;60843;52.062;4.508;2023-05-28T10:50:57;11.40;;;3.25;;
72728;SDS011;60843;52.062;4.508;2023-05-28T10:53:24;10.52;;;2.95;;
72728;SDS011;60843;52.062;4.508;2023-05-28T10:55:51;13.45;;;3.47;;
72728;SDS011;60843;52.062;4.508;2023-05-28T10:58:35;11.02;;;3.80;;
72728;SDS011;60843;52.062;4.508;2023-05-28T11:01:05;9.07;;;3.13;;
72728;SDS011;60843;52.062;4.508;2023-05-28T11:03:37;14.98;;;3.65;;
72728;SDS011;60843;52.062;4.508;2023-05-28T11:06:09;11.05;;;3.22;;
72728;SDS011;60843;52.062;4.508;2023-05-28T11:08:43;12.77;;;3.65;;
72728;SDS011;60843;52.062;4.508;2023-05-28T11:11:10;14.02;;;3.78;;
72728;SDS011;60843;52.062;4.508;2023-05-28T11:13:46;10.90;;;3.55;;
72728;SDS011;60843;52.062;4.508;2023-05-28T11:16:14;14.13;;;4.10;;
72728;SDS011;60843;52.062;4.508;2023-05-28T11:18:58;18.17;;;3.50;;
72728;SDS011;60843;52.062;4.508;2023-05-28T11:21:33;12.70;;;3.65;;
72728;SDS011;60843;52.062;4.508;2023-05-28T11:24:01;11.25;;;3.42;;
72728;SDS011;60843;52.062;4.508;2023-05-28T11:26:28;15.10;;;3.85;;
72728;SDS011;60843;52.062;4.508;2023-05-28T11:28:53;10.48;;;3.55;;
72728;SDS011;60843;52.062;4.508;2023-05-28T11:31:19;10.85;;;3.45;;
72728;SDS011;60843;52.062;4.508;2023-05-28T11:33:48;10.65;;;3.45;;
72728;SDS011;60843;52.062;4.508;2023-05-28T11:36:14;15.18;;;4.88;;
72728;SDS011;60843;52.062;4.508;2023-05-28T11:38:39;11.00;;;3.58;;
72728;SDS011;60843;52.062;4.508;2023-05-28T11:41:05;11.68;;;4.32;;
72728;SDS011;60843;52.062;4.508;2023-05-28T11:43:31;11.10;;;3.97;;
72728;SDS011;60843;52.062;4.508;2023-05-28T11:45:59;10.97;;;3.80;;
72728;SDS011;60843;52.062;4.508;2023-05-28T11:48:25;7.28;;;3.20;;
72728;SDS011;60843;52.062;4.508;2023-05-28T11:50:55;12.43;;;3.65;;
72728;SDS011;60843;52.062;4.508;2023-05-28T11:53:22;6.32;;;2.95;;
72728;SDS011;60843;52.062;4.508;2023-05-28T11:55:47;12.00;;;3.35;;
72728;SDS011;60843;52.062;4.508;2023-05-28T11:58:13;7.30;;;2.17;;
72728;SDS011;60843;52.062;4.508;2023-05-28T12:00:39;13.33;;;3.07;;
72728;SDS011;60843;52.062;4.508;2023-05-28T12:03:04;15.18;;;2.83;;
72728;SDS011;60843;52.062;4.508;2023-05-28T12:05:35;12.05;;;3.60;;
72728;SDS011;60843;52.062;4.508;2023-05-28T12:08:03;9.25;;;3.00;;
72728;SDS011;60843;52.062;4.508;2023-05-28T12:10:30;10.27;;;4.10;;
72728;SDS011;60843;52.062;4.508;2023-05-28T12:12:56;12.93;;;3.50;;
72728;SDS011;60843;52.062;4.508;2023-05-28T12:15:28;12.23;;;4.07;;
72728;SDS011;60843;52.062;4.508;2023-05-28T12:17:58;11.13;;;4.30;;
72728;SDS011;60843;52.062;4.508;2023-05-28T12:20:29;11.02;;;3.88;;
72728;SDS011;60843;52.062;4.508;2023-05-28T12:22:59;7.65;;;3.60;;
72728;SDS011;60843;52.062;4.508;2023-05-28T12:25:25;10.02;;;3.17;;
72728;SDS011;60843;52.062;4.508;2023-05-28T12:27:50;11.40;;;4.00;;
72728;SDS011;60843;52.062;4.508;2023-05-28T12:30:16;9.82;;;2.85;;
72728;SDS011;60843;52.062;4.508;2023-05-28T12:32:41;10.93;;;3.53;;
72728;SDS011;60843;52.062;4.508;2023-05-28T12:35:07;10.63;;;3.40;;
72728;SDS011;60843;52.062;4.508;2023-05-28T12:37:33;10.38;;;3.78;;
72728;SDS011;60843;52.062;4.508;2023-05-28T12:39:59;9.98;;;3.25;;
72728;SDS011;60843;52.062;4.508;2023-05-28T12:42:24;11.88;;;3.65;;
72728;SDS011;60843;52.062;4.508;2023-05-28T12:44:50;7.97;;;3.35;;
72728;SDS011;60843;52.062;4.508;2023-05-28T12:47:15;10.07;;;3.42;;
72728;SDS011;60843;52.062;4.508;2023-05-28T12:49:41;8.35;;;3.17;;
72728;SDS011;60843;52.062;4.508;2023-05-28T12:52:06;9.55;;;3.22;;
72728;SDS011;60843;52.062;4.508;2023-05-28T12:54:32;9.02;;;3.25;;
72728;SDS011;60843;52.062;4.508;2023-05-28T12:56:58;10.93;;;3.25;;
72728;SDS011;60843;52.062;4.508;2023-05-28T12:59:24;15.50;;;3.17;;
72728;SDS011;60843;52.062;4.508;2023-05-28T13:01:51;13.60;;;3.13;;
72728;SDS011;60843;52.062;4.508;2023-05-28T13:04:17;13.75;;;3.80;;
72728;SDS011;60843;52.062;4.508;2023-05-28T13:06:46;10.55;;;3.38;;
72728;SDS011;60843;52.062;4.508;2023-05-28T13:09:12;9.38;;;3.97;;
72728;SDS011;60843;52.062;4.508;2023-05-28T13:11:38;9.77;;;2.92;;
72728;SDS011;60843;52.062;4.508;2023-05-28T13:14:05;9.60;;;2.55;;
72728;SDS011;60843;52.062;4.508;2023-05-28T13:16:31;12.50;;;3.22;;
72728;SDS011;60843;52.062;4.508;2023-05-28T13:18:56;18.77;;;3.75;;
72728;SDS011;60843;52.062;4.508;2023-05-28T13:21:21;8.97;;;3.07;;
72728;SDS011;60843;52.062;4.508;2023-05-28T13:23:47;9.88;;;3.60;;
72728;SDS011;60843;52.062;4.508;2023-05-28T13:26:13;11.63;;;3.60;;
72728;SDS011;60843;52.062;4.508;2023-05-28T13:28:38;8.63;;;3.17;;
72728;SDS011;60843;52.062;4.508;2023-05-28T13:31:04;8.50;;;3.00;;
72728;SDS011;60843;52.062;4.508;2023-05-28T13:33:29;9.45;;;3.60;;
72728;SDS011;60843;52.062;4.508;2023-05-28T13:35:55;8.63;;;3.57;;
72728;SDS011;60843;52.062;4.508;2023-05-28T13:38:20;9.17;;;2.90;;
72728;SDS011;60843;52.062;4.508;2023-05-28T13:40:45;10.45;;;3.83;;
72728;SDS011;60843;52.062;4.508;2023-05-28T13:43:12;9.02;;;3.03;;
72728;SDS011;60843;52.062;4.508;2023-05-28T13:45:39;11.43;;;3.75;;
72728;SDS011;60843;52.062;4.508;2023-05-28T13:48:05;8.52;;;2.95;;
72728;SDS011;60843;52.062;4.508;2023-05-28T13:50:30;7.35;;;3.20;;
72728;SDS011;60843;52.062;4.508;2023-05-28T13:52:56;6.73;;;2.80;;
72728;SDS011;60843;52.062;4.508;2023-05-28T13:55:22;10.02;;;2.70;;
72728;SDS011;60843;52.062;4.508;2023-05-28T13:57:47;9.83;;;2.47;;
72728;SDS011;60843;52.062;4.508;2023-05-28T14:00:13;7.77;;;2.47;;
72728;SDS011;60843;52.062;4.508;2023-05-28T14:02:40;6.55;;;2.60;;
72728;SDS011;60843;52.062;4.508;2023-05-28T14:05:06;9.57;;;3.05;;
72728;SDS011;60843;52.062;4.508;2023-05-28T14:07:32;9.88;;;3.05;;
72728;SDS011;60843;52.062;4.508;2023-05-28T14:09:57;8.27;;;2.97;;
72728;SDS011;60843;52.062;4.508;2023-05-28T14:12:22;5.25;;;2.72;;
72728;SDS011;60843;52.062;4.508;2023-05-28T14:14:48;6.90;;;3.20;;
72728;SDS011;60843;52.062;4.508;2023-05-28T14:17:13;6.47;;;2.30;;
72728;SDS011;60843;52.062;4.508;2023-05-28T14:19:39;8.67;;;3.10;;
72728;SDS011;60843;52.062;4.508;2023-05-28T14:22:05;7.57;;;2.75;;
72728;SDS011;60843;52.062;4.508;2023-05-28T14:24:30;6.82;;;3.03;;
72728;SDS011;60843;52.062;4.508;2023-05-28T14:26:56;6.70;;;2.90;;
72728;SDS011;60843;52.062;4.508;2023-05-28T14:29:21;8.60;;;2.53;;
72728;SDS011;60843;52.062;4.508;2023-05-28T14:31:46;6.87;;;3.07;;
72728;SDS011;60843;52.062;4.508;2023-05-28T14:34:12;5.57;;;2.00;;
72728;SDS011;60843;52.062;4.508;2023-05-28T14:36:37;9.70;;;3.20;;
72728;SDS011;60843;52.062;4.508;2023-05-28T14:39:03;6.72;;;3.33;;